Time;durP1;ratioP1;P1;durP2;ratioP2;P2;SDS_P1;SDS_P2;PMS_P1;PMS_P2;Temp;Humidity;BMP_temperature;BMP_pressure;BME280_temperature;BME280_humidity;BME280_pressure;Samples;Min_cycle;Max_cycle;Signal;HPM_P1;HPM_P2
2023/08/06 00:01:21;;;;;;;8.02;3.65;;;;;;;27.62;66.19;97594.00;4940024;29;20594;-94
2023/08/06 00:03:47;;;;;;;4.50;2.67;;;;;;;27.57;66.08;97585.81;4940322;29;20195;-93
2023/08/06 00:06:13;;;;;;;9.07;3.40;;;;;;;27.51;66.75;97587.50;4939681;29;20208;-92
2023/08/06 00:08:40;;;;;;;8.15;3.22;;;;;;;27.20;67.92;97588.44;4939172;29;20546;-92
2023/08/06 00:11:06;;;;;;;6.93;3.58;;;;;;;27.12;68.65;97590.63;4939993;29;20185;-93
2023/08/06 00:13:33;;;;;;;7.20;3.83;;;;;;;27.18;68.50;97595.09;4939747;29;20184;-93
2023/08/06 00:16:14;;;;;;;6.60;3.25;;;;;;;27.41;67.85;97598.00;4939722;29;20187;-92
2023/08/06 00:18:44;;;;;;;7.97;3.75;;;;;;;27.36;67.88;97598.59;4939580;29;20185;-94
2023/08/06 00:21:14;;;;;;;7.38;3.90;;;;;;;27.49;67.42;97600.34;4939620;29;20176;-93
2023/08/06 00:23:40;;;;;;;5.43;3.00;;;;;;;27.53;67.41;97601.56;4939640;29;20236;-93
2023/08/06 00:26:09;;;;;;;5.15;3.20;;;;;;;27.65;66.80;97604.31;4939494;29;20215;-93
2023/08/06 00:28:35;;;;;;;7.07;3.63;;;;;;;27.71;66.36;97601.56;4939584;29;20204;-94
2023/08/06 00:31:01;;;;;;;7.60;3.20;;;;;;;27.72;66.36;97594.28;4939561;29;20579;-93
2023/08/06 00:33:28;;;;;;;7.38;3.53;;;;;;;27.59;66.69;97589.06;4956441;29;20627;-93
2023/08/06 00:35:55;;;;;;;7.07;3.25;;;;;;;27.61;66.79;97595.06;4939544;29;20227;-93
2023/08/06 00:38:21;;;;;;;9.25;3.75;;;;;;;27.68;66.60;97596.63;4939489;29;20239;-93
2023/08/06 00:40:46;;;;;;;6.90;4.00;;;;;;;27.79;66.48;97601.25;4939172;29;20224;-94
2023/08/06 00:43:13;;;;;;;7.05;3.92;;;;;;;27.90;65.58;97596.97;4939284;29;20196;-93
2023/08/06 00:45:40;;;;;;;6.60;3.53;;;;;;;27.84;66.13;97600.56;4939281;29;20737;-93
2023/08/06 00:48:07;;;;;;;7.15;3.17;;;;;;;27.87;65.60;97594.72;4939273;29;20571;-93
2023/08/06 00:50:34;;;;;;;8.68;3.85;;;;;;;27.81;65.93;97590.22;4939369;29;20356;-92
2023/08/06 00:52:59;;;;;;;9.60;3.40;;;;;;;27.68;66.66;97593.91;4939054;29;20635;-91
2023/08/06 00:55:26;;;;;;;11.38;3.90;;;;;;;27.56;67.19;97594.91;4956008;29;20169;-92
2023/08/06 00:57:56;;;;;;;9.30;3.97;;;;;;;27.46;68.16;97590.06;4955841;29;20173;-92
2023/08/06 01:00:24;;;;;;;6.18;3.30;;;;;;;27.42;68.31;97588.84;4939011;29;20176;-92
2023/08/06 01:02:52;;;;;;;7.22;3.70;;;;;;;27.31;69.01;97582.31;4939072;29;20328;-93
2023/08/06 01:05:18;;;;;;;7.70;4.35;;;;;;;27.22;69.33;97577.47;4928689;29;20624;-94
2023/08/06 01:08:24;;;;;;;5.45;3.40;;;;;;;27.27;69.65;97569.53;4935990;29;20647;-93
2023/08/06 01:11:24;;;;;;;7.60;3.83;;;;;;;27.05;70.73;97560.25;4899644;29;20198;-93
2023/08/06 01:13:57;;;;;;;6.15;3.72;;;;;;;26.90;71.87;97555.25;4920006;29;20177;-94
2023/08/06 01:16:24;;;;;;;8.77;3.95;;;;;;;26.81;72.37;97546.63;4919946;29;20174;-92
2023/08/06 01:18:51;;;;;;;7.25;3.80;;;;;;;26.82;72.22;97544.78;4919833;29;20181;-93
2023/08/06 01:21:19;;;;;;;9.20;4.00;;;;;;;26.86;72.13;97535.19;4921206;29;20193;-92
2023/08/06 01:23:45;;;;;;;8.60;3.63;;;;;;;26.86;72.31;97521.75;4933795;29;20652;-92
2023/08/06 01:26:26;;;;;;;8.27;3.58;;;;;;;26.67;73.49;97525.47;4942602;29;20208;-92
2023/08/06 01:28:57;;;;;;;9.95;4.10;;;;;;;26.71;73.63;97527.47;4959706;29;20255;-93
2023/08/06 01:31:27;;;;;;;7.03;3.70;;;;;;;26.73;73.68;97525.38;4942581;29;20217;-93
2023/08/06 01:33:56;;;;;;;11.10;4.18;;;;;;;26.76;73.50;97521.44;4942558;29;20592;-93
2023/08/06 01:36:23;;;;;;;7.75;3.95;;;;;;;26.77;73.45;97515.88;4942827;29;20593;-93
2023/08/06 01:38:53;;;;;;;7.97;4.25;;;;;;;26.68;74.34;97516.34;4925129;29;20185;-91
2023/08/06 01:41:20;;;;;;;7.75;3.88;;;;;;;26.53;75.63;97515.84;4940049;29;20240;-92
2023/08/06 01:43:47;;;;;;;10.70;4.18;;;;;;;26.52;75.55;97522.28;4940015;29;20275;-92
2023/08/06 01:46:14;;;;;;;8.73;4.63;;;;;;;26.48;75.96;97518.38;4923149;29;20362;-93
2023/08/06 01:48:41;;;;;;;9.35;4.32;;;;;;;26.39;76.76;97517.84;4923355;29;20606;-92
2023/08/06 01:51:06;;;;;;;8.23;4.47;;;;;;;26.34;76.99;97514.97;4939737;29;20182;-92
2023/08/06 01:53:32;;;;;;;8.95;4.30;;;;;;;26.46;76.52;97515.09;4923221;29;20181;-92
2023/08/06 01:55:59;;;;;;;7.07;4.47;;;;;;;26.37;77.37;97513.72;4923081;29;20204;-91
2023/08/06 01:58:26;;;;;;;8.98;5.28;;;;;;;26.31;77.58;97520.78;4923050;29;20600;-91
2023/08/06 02:00:52;;;;;;;9.45;4.38;;;;;;;26.46;76.99;97513.25;4923066;29;20671;-92
2023/08/06 02:03:19;;;;;;;8.70;4.43;;;;;;;26.64;75.89;97509.78;4923051;29;20194;-93
2023/08/06 02:05:46;;;;;;;6.78;4.68;;;;;;;26.81;75.30;97508.16;4922884;29;20197;-93
2023/08/06 02:08:13;;;;;;;8.32;4.57;;;;;;;26.86;74.65;97513.69;4922949;29;20189;-92
2023/08/06 02:10:41;;;;;;;6.80;3.78;;;;;;;26.95;74.49;97515.06;4923263;29;20612;-93
2023/08/06 02:13:08;;;;;;;8.35;4.05;;;;;;;26.89;74.76;97507.88;4940055;29;20261;-93
2023/08/06 02:15:34;;;;;;;11.15;4.18;;;;;;;26.93;74.56;97514.47;4923005;29;20178;-91
2023/08/06 02:18:01;;;;;;;7.95;4.68;;;;;;;26.75;75.42;97512.56;4922867;29;20216;-92
2023/08/06 02:20:28;;;;;;;9.23;4.35;;;;;;;26.80;75.25;97506.53;4922739;29;20181;-93
2023/08/06 02:22:54;;;;;;;10.63;4.35;;;;;;;26.72;76.08;97512.16;4922690;29;20216;-92
2023/08/06 02:25:21;;;;;;;7.70;4.60;;;;;;;26.55;77.03;97519.13;4937432;29;20225;-91
2023/08/06 02:27:47;;;;;;;8.82;4.95;;;;;;;26.81;75.70;97513.53;4948147;29;20194;-93
2023/08/06 02:30:13;;;;;;;7.25;4.57;;;;;;;26.98;74.67;97522.69;4922681;29;20203;-91
2023/08/06 02:32:39;;;;;;;14.25;4.47;;;;;;;27.10;73.86;97514.69;4921984;29;20277;-93
2023/08/06 02:35:05;;;;;;;9.57;5.30;;;;;;;27.08;74.13;97512.22;4938949;29;20173;-92
2023/08/06 02:37:34;;;;;;;6.93;4.45;;;;;;;27.13;74.18;97525.81;4937324;29;20215;-93
2023/08/06 02:40:02;;;;;;;9.90;4.95;;;;;;;27.34;72.67;97524.53;4941433;29;20181;-93
2023/08/06 02:42:28;;;;;;;8.98;4.28;;;;;;;27.46;71.73;97524.66;4941640;29;20181;-93
2023/08/06 02:44:55;;;;;;;7.22;4.57;;;;;;;27.53;71.21;97522.69;4941442;29;20631;-92
2023/08/06 02:47:20;;;;;;;7.25;4.28;;;;;;;27.51;70.80;97525.63;4941308;29;20181;-93
2023/08/06 02:49:47;;;;;;;11.43;4.53;;;;;;;27.53;70.32;97520.00;4941270;29;20210;-93
2023/08/06 02:52:14;;;;;;;9.10;4.60;;;;;;;27.43;70.82;97515.97;4942264;29;20284;-93
2023/08/06 02:54:41;;;;;;;12.80;4.82;;;;;;;27.32;71.05;97508.63;4941138;29;20244;-92
2023/08/06 02:57:07;;;;;;;8.20;4.70;;;;;;;27.28;71.08;97509.31;4958568;29;20193;-93
2023/08/06 02:59:34;;;;;;;13.95;5.55;;;;;;;27.17;72.07;97516.28;4941171;29;20173;-92
2023/08/06 03:02:00;;;;;;;6.72;4.35;;;;;;;27.03;72.94;97514.78;4940986;29;20188;-93
2023/08/06 03:04:27;;;;;;;7.22;4.47;;;;;;;26.99;73.40;97512.75;4941055;29;20665;-93
2023/08/06 03:06:53;;;;;;;8.38;4.45;;;;;;;26.89;73.82;97507.88;4940936;29;20193;-93
2023/08/06 03:09:19;;;;;;;5.85;4.38;;;;;;;26.99;73.50;97508.19;4940936;29;20299;-92
2023/08/06 03:11:45;;;;;;;10.07;4.38;;;;;;;27.19;72.65;97499.91;4940880;29;20290;-93
2023/08/06 03:14:11;;;;;;;10.43;4.82;;;;;;;27.30;71.93;97508.03;4940792;29;20182;-93
2023/08/06 03:16:38;;;;;;;7.38;4.40;;;;;;;27.34;71.49;97508.41;4940715;29;20177;-93
2023/08/06 03:19:03;;;;;;;7.93;4.68;;;;;;;27.36;71.64;97509.81;4940732;29;20208;-92
2023/08/06 03:21:30;;;;;;;8.23;5.03;;;;;;;27.40;71.06;97502.97;4940589;29;20527;-92
2023/08/06 03:23:55;;;;;;;7.80;5.05;;;;;;;27.42;71.19;97510.81;4940458;28;20177;-93
2023/08/06 03:26:21;;;;;;;10.38;4.70;;;;;;;27.42;70.99;97514.31;4940603;29;20212;-94
2023/08/06 03:28:47;;;;;;;9.75;4.57;;;;;;;27.43;71.66;97515.97;4957605;29;20177;-92
2023/08/06 03:31:13;;;;;;;8.68;4.65;;;;;;;27.58;70.95;97514.75;4939162;29;20183;-93
2023/08/06 03:33:39;;;;;;;8.27;5.30;;;;;;;27.57;70.80;97515.81;4921294;29;20182;-92
2023/08/06 03:36:06;;;;;;;11.70;5.03;;;;;;;27.59;71.12;97513.72;4921482;29;20185;-93
2023/08/06 03:38:33;;;;;;;11.95;4.90;;;;;;;27.63;70.92;97518.41;4921434;29;20182;-93
2023/08/06 03:40:59;;;;;;;10.32;5.82;;;;;;;27.68;71.18;97528.47;4924521;29;20190;-92
2023/08/06 03:43:26;;;;;;;8.75;4.85;;;;;;;27.75;70.71;97515.78;4920582;29;20260;-93
2023/08/06 03:45:53;;;;;;;9.50;5.60;;;;;;;27.80;70.51;97522.13;4921109;29;20302;-93
2023/08/06 03:48:19;;;;;;;10.45;5.65;;;;;;;27.85;70.51;97524.13;4921336;29;20207;-93
2023/08/06 03:50:46;;;;;;;10.52;5.15;;;;;;;27.90;70.61;97526.94;4921365;29;20655;-93
2023/08/06 03:53:13;;;;;;;12.15;5.22;;;;;;;27.83;70.81;97532.41;4921294;29;20226;-93
2023/08/06 03:55:39;;;;;;;9.77;6.22;;;;;;;27.89;70.79;97541.44;4921427;29;20182;-93
2023/08/06 03:58:06;;;;;;;10.02;5.60;;;;;;;27.97;70.49;97546.50;4938231;29;20265;-93
2023/08/06 04:00:32;;;;;;;12.75;5.63;;;;;;;28.04;70.07;97549.94;4936945;29;20193;-93
2023/08/06 04:02:58;;;;;;;12.90;5.78;;;;;;;28.10;69.68;97543.66;4921127;29;20190;-93
2023/08/06 04:05:25;;;;;;;15.85;6.05;;;;;;;28.07;69.93;97548.69;4921143;29;20292;-93
2023/08/06 04:07:52;;;;;;;8.55;5.68;;;;;;;28.12;70.00;97546.13;4925688;29;20215;-93
2023/08/06 04:12:55;;;;;;;8.75;5.93;;;;;;;28.22;69.37;97549.91;4974994;28;20226;-94
2023/08/06 04:15:21;;;;;;;11.38;6.20;;;;;;;28.18;69.23;97554.09;4959386;28;20177;-93
2023/08/06 04:17:48;;;;;;;10.30;6.05;;;;;;;28.15;69.33;97546.47;4959237;28;20649;-93
2023/08/06 04:20:13;;;;;;;12.05;5.32;;;;;;;28.19;69.23;97539.59;4959086;28;20180;-93
2023/08/06 04:22:40;;;;;;;10.85;5.93;;;;;;;28.21;68.61;97540.19;4958940;28;20184;-93
2023/08/06 04:25:06;;;;;;;12.25;6.40;;;;;;;28.23;69.06;97535.38;4958984;28;20559;-93
2023/08/06 04:27:32;;;;;;;11.43;6.50;;;;;;;28.29;69.07;97531.75;4959015;28;20176;-92
2023/08/06 04:29:58;;;;;;;12.55;6.72;;;;;;;28.36;68.60;97526.25;4958711;28;20688;-93
2023/08/06 04:32:25;;;;;;;9.27;6.05;;;;;;;28.39;68.02;97521.22;4959183;28;20292;-93
2023/08/06 04:34:51;;;;;;;11.20;6.78;;;;;;;28.37;68.49;97517.94;4945113;29;20181;-93
2023/08/06 04:37:18;;;;;;;11.90;6.40;;;;;;;28.36;68.78;97508.22;4955769;29;20718;-93
2023/08/06 04:39:45;;;;;;;11.55;6.65;;;;;;;28.40;68.66;97509.41;4955507;29;20185;-92
2023/08/06 04:42:11;;;;;;;9.57;6.90;;;;;;;28.44;68.72;97501.66;4956430;29;20611;-93
2023/08/06 04:44:38;;;;;;;10.55;7.32;;;;;;;28.44;69.02;97502.47;4960313;28;20634;-92
2023/08/06 04:47:05;;;;;;;10.43;7.25;;;;;;;28.28;69.54;97497.75;4958669;28;20235;-93
2023/08/06 04:49:32;;;;;;;15.18;8.10;;;;;;;28.37;69.17;97499.09;4958578;28;20185;-92
2023/08/06 04:51:59;;;;;;;17.00;8.05;;;;;;;28.43;69.04;97491.94;4958667;28;20535;-92
2023/08/06 04:54:25;;;;;;;11.85;7.35;;;;;;;28.40;69.74;97504.00;4958661;28;20614;-93
2023/08/06 04:56:52;;;;;;;14.93;7.70;;;;;;;28.60;69.41;97507.19;4959334;28;20175;-93
2023/08/06 04:59:19;;;;;;;18.08;7.53;;;;;;;28.44;69.13;97507.88;4958570;28;20271;-93
2023/08/06 05:01:45;;;;;;;17.48;8.13;;;;;;;28.57;68.52;97504.94;4958436;28;20188;-93
2023/08/06 05:04:12;;;;;;;13.25;8.57;;;;;;;28.52;68.32;97510.22;4958202;28;20179;-92
2023/08/06 05:06:40;;;;;;;13.73;7.72;;;;;;;28.64;67.99;97502.19;4974487;28;20286;-93
2023/08/06 05:09:07;;;;;;;12.55;7.63;;;;;;;28.59;68.34;97499.31;4958131;28;20188;-93
2023/08/06 05:11:32;;;;;;;11.15;7.47;;;;;;;28.40;69.15;97505.88;4955120;28;20268;-92
2023/08/06 05:13:59;;;;;;;15.25;7.57;;;;;;;28.25;69.59;97506.31;4956070;28;20189;-93
2023/08/06 05:16:26;;;;;;;14.98;8.43;;;;;;;28.17;70.21;97512.03;4955141;29;20177;-93
2023/08/06 05:18:52;;;;;;;14.88;8.38;;;;;;;28.09;70.59;97514.25;4970834;28;20189;-93
2023/08/06 05:21:19;;;;;;;14.30;8.43;;;;;;;28.16;70.22;97521.19;4955426;28;20246;-92
2023/08/06 05:23:46;;;;;;;13.23;9.00;;;;;;;28.12;70.21;97508.41;4958049;28;20554;-92
2023/08/06 05:26:14;;;;;;;13.73;8.02;;;;;;;28.02;70.85;97523.25;4958314;28;20304;-92
2023/08/06 05:28:41;;;;;;;14.80;8.13;;;;;;;28.14;70.46;97515.22;4958055;28;20582;-93
2023/08/06 05:31:06;;;;;;;13.90;9.00;;;;;;;27.66;72.28;97517.13;4974744;28;20209;-94
2023/08/06 05:33:33;;;;;;;16.63;8.18;;;;;;;27.77;72.17;97503.72;4957599;28;20531;-94
2023/08/06 05:36:00;;;;;;;15.13;8.38;;;;;;;27.92;71.47;97500.59;4957418;28;20185;-94
2023/08/06 05:38:27;;;;;;;17.80;8.98;;;;;;;27.79;72.15;97495.41;4957340;28;20291;-95
2023/08/06 05:40:52;;;;;;;13.27;8.05;;;;;;;28.11;71.23;97488.72;4957538;28;20184;-94
2023/08/06 05:43:19;;;;;;;14.77;8.30;;;;;;;28.39;70.63;97494.28;4958161;28;20195;-94
2023/08/06 05:45:46;;;;;;;13.00;8.38;;;;;;;28.66;69.25;97489.28;4971249;28;20619;-96
2023/08/06 05:48:13;;;;;;;14.32;8.27;;;;;;;28.82;68.64;97488.56;4957847;28;20271;-95
2023/08/06 05:50:40;;;;;;;12.68;8.13;;;;;;;28.78;68.39;97481.16;4974309;28;20184;-94
2023/08/06 05:53:07;;;;;;;16.65;8.93;;;;;;;28.99;67.23;97473.28;4957911;28;20180;-95
2023/08/06 05:55:34;;;;;;;11.75;8.48;;;;;;;28.96;67.18;97470.22;4957798;28;20180;-94
2023/08/06 05:58:03;;;;;;;13.60;7.88;;;;;;;29.06;66.85;97467.78;4958651;28;20192;-95
2023/08/06 06:00:50;;;;;;;12.20;7.97;;;;;;;29.19;66.94;97462.09;4958020;28;20185;-96
2023/08/06 06:03:16;;;;;;;14.45;7.82;;;;;;;29.47;66.12;97459.44;4957685;28;20212;-95
2023/08/06 06:05:45;;;;;;;11.50;7.88;;;;;;;29.45;64.71;97453.47;4974685;28;20652;-96
2023/08/06 06:08:13;;;;;;;15.43;8.48;;;;;;;29.37;65.24;97470.06;4958200;28;20633;-95
2023/08/06 06:10:56;;;;;;;13.48;7.45;;;;;;;29.34;65.08;97465.13;4961792;28;20184;-95
2023/08/06 06:13:23;;;;;;;15.10;6.80;;;;;;;29.68;64.13;97472.28;4959548;28;20287;-95
2023/08/06 06:16:05;;;;;;;12.18;7.45;;;;;;;29.80;63.09;97491.97;4974899;28;20721;-94
2023/08/06 06:18:41;;;;;;;;;;;;;;;;;;;;;
2023/08/06 06:21:15;;;;;;;10.07;6.95;;;;;;;29.92;62.03;97513.53;4968762;28;20189;-95
2023/08/06 06:23:48;;;;;;;12.70;7.07;;;;;;;29.91;61.95;97505.66;4960962;28;20612;-95
2023/08/06 06:26:15;;;;;;;16.58;8.65;;;;;;;29.83;62.43;97510.41;4973235;28;20211;-94
2023/08/06 06:29:06;;;;;;;16.08;7.68;;;;;;;29.95;61.72;97515.75;4960829;28;20638;-95
2023/08/06 06:34:55;;;;;;;;;;;;;;;;;;;;;
2023/08/06 06:51:12;;;;;;;30.02;9.40;;;;;;;29.52;62.32;97569.41;4883413;29;22015;-95
2023/08/06 06:54:10;;;;;;;10.85;6.38;;;;;;;29.35;62.66;97569.31;4883732;29;20175;-96
2023/08/06 07:00:08;;;;;;;;;;;;;;;;;;;;;
2023/08/06 07:06:03;;;;;;;11.50;7.07;;;;;;;29.68;61.85;97493.88;4879556;29;20204;-96
2023/08/06 07:09:19;;;;;;;14.07;7.22;;;;;;;29.41;62.54;97530.59;4859957;29;20279;-95
2023/08/06 07:12:04;;;;;;;14.30;8.05;;;;;;;29.28;63.49;97590.25;4948490;28;20263;-96
2023/08/06 07:14:29;;;;;;;15.77;7.22;;;;;;;29.04;65.29;97584.00;4959925;28;20200;-91
2023/08/06 07:16:59;;;;;;;15.02;7.93;;;;;;;28.85;67.91;97547.41;4956005;28;20188;-94
2023/08/06 07:19:25;;;;;;;20.45;8.35;;;;;;;28.86;69.24;97507.78;4958512;28;20556;-92
2023/08/06 07:21:50;;;;;;;15.43;8.68;;;;;;;28.70;70.69;97484.22;4959804;28;20184;-91
2023/08/06 07:24:16;;;;;;;12.00;6.15;;;;;;;28.36;67.25;97505.50;4976193;28;20188;-89
2023/08/06 07:26:41;;;;;;;7.68;4.72;;;;;;;28.13;68.90;97527.03;4972187;28;20239;-88
2023/08/06 07:29:07;;;;;;;9.70;4.13;;;;;;;27.89;67.89;97519.91;4957591;28;20281;-88
2023/08/06 07:31:32;;;;;;;8.95;3.70;;;;;;;27.58;66.90;97520.13;4951593;28;20623;-86
2023/08/06 07:33:58;;;;;;;5.93;3.08;;;;;;;27.40;67.37;97531.75;4975777;28;20184;-87
2023/08/06 07:36:23;;;;;;;5.05;3.20;;;;;;;27.21;66.87;97533.59;4959306;28;20255;-89
2023/08/06 07:38:55;;;;;;;5.28;2.53;;;;;;;27.17;66.14;97547.72;4973161;28;20192;-87
2023/08/06 07:41:22;;;;;;;11.02;2.42;;;;;;;27.33;65.93;97564.06;4969281;28;20254;-88
2023/08/06 07:43:49;;;;;;;6.90;2.08;;;;;;;27.25;65.76;97577.81;4976105;28;20184;-90
2023/08/06 07:46:15;;;;;;;8.65;2.63;;;;;;;27.11;66.13;97572.81;4959127;28;20200;-89
2023/08/06 07:48:40;;;;;;;5.07;1.73;;;;;;;27.14;66.45;97575.91;4976320;28;20188;-89
2023/08/06 07:51:08;;;;;;;4.82;1.88;;;;;;;27.07;66.57;97614.66;4955656;28;20180;-89
2023/08/06 07:53:34;;;;;;;5.32;1.30;;;;;;;26.75;66.39;97640.78;4950636;28;20180;-88
2023/08/06 07:56:01;;;;;;;3.58;1.50;;;;;;;26.55;67.12;97635.53;4959292;28;20181;-89
2023/08/06 07:58:34;;;;;;;2.30;1.15;;;;;;;26.52;67.20;97635.16;4975432;28;20721;-89
2023/08/06 08:01:05;;;;;;;4.45;1.27;;;;;;;26.27;67.61;97620.84;4974695;28;20180;-89
2023/08/06 08:03:36;;;;;;;4.20;1.50;;;;;;;25.96;67.68;97603.66;4954730;29;20185;-90
2023/08/06 08:06:02;;;;;;;3.00;1.00;;;;;;;26.19;67.37;97578.94;4959859;28;20204;-90
2023/08/06 08:08:28;;;;;;;4.35;1.38;;;;;;;26.37;67.59;97572.84;4959571;28;20181;-90
2023/08/06 08:11:22;;;;;;;7.80;1.40;;;;;;;26.46;68.24;97563.47;4957248;28;20188;-90
2023/08/06 08:13:49;;;;;;;3.45;1.48;;;;;;;26.63;68.67;97554.63;4975486;28;20231;-91
2023/08/06 08:16:21;;;;;;;3.60;0.90;;;;;;;26.65;68.72;97547.16;4973867;28;20649;-92
2023/08/06 08:18:49;;;;;;;6.72;1.23;;;;;;;26.79;69.17;97540.66;4954475;28;20201;-92
2023/08/06 08:21:19;;;;;;;4.30;0.90;;;;;;;27.05;69.63;97555.69;4973489;28;20262;-91
2023/08/06 08:23:54;;;;;;;3.35;1.23;;;;;;;27.35;68.04;97556.63;4974815;28;20223;-90
2023/08/06 08:26:31;;;;;;;5.22;1.20;;;;;;;27.67;67.23;97546.53;4975289;28;20689;-91
2023/08/06 08:29:10;;;;;;;2.72;1.05;;;;;;;27.91;67.08;97536.63;4975732;28;20255;-90
2023/08/06 08:31:43;;;;;;;1.98;0.95;;;;;;;28.14;63.97;97504.44;4952795;29;20200;-90
2023/08/06 08:34:28;;;;;;;1.85;0.88;;;;;;;28.74;64.01;97486.22;4969748;28;20207;-91
2023/08/06 08:37:08;;;;;;;3.05;1.10;;;;;;;29.00;62.88;97480.34;4943983;28;20177;-91
2023/08/06 08:39:35;;;;;;;3.35;1.10;;;;;;;29.04;63.22;97486.06;4966739;28;20188;-92
2023/08/06 08:42:03;;;;;;;2.40;1.05;;;;;;;29.13;61.57;97481.94;4968373;28;20278;-91
2023/08/06 08:44:37;;;;;;;3.22;1.23;;;;;;;29.31;59.30;97495.28;4971026;28;20202;-91
2023/08/06 08:47:03;;;;;;;2.10;1.00;;;;;;;29.54;60.68;97503.31;4975787;28;20260;-90
2023/08/06 08:49:30;;;;;;;4.47;1.00;;;;;;;29.89;61.30;97508.59;4975356;28;20199;-90
2023/08/06 08:51:57;;;;;;;2.80;1.10;;;;;;;30.13;59.65;97523.63;4954632;29;20185;-92
2023/08/06 08:54:26;;;;;;;2.67;1.10;;;;;;;30.41;58.45;97520.06;4960344;28;20199;-92
2023/08/06 08:56:54;;;;;;;3.30;1.50;;;;;;;30.65;57.11;97521.53;4969708;28;20535;-93
2023/08/06 08:59:21;;;;;;;2.95;1.15;;;;;;;31.02;58.39;97517.25;4958221;28;20180;-93
2023/08/06 09:01:51;;;;;;;2.80;0.93;;;;;;;31.17;57.29;97518.53;4958683;28;20184;-93
2023/08/06 09:04:17;;;;;;;3.08;1.35;;;;;;;31.29;56.79;97521.94;4958580;28;20191;-93
2023/08/06 09:07:01;;;;;;;5.20;2.50;;;;;;;31.55;55.93;97516.59;4942936;28;20209;-95
2023/08/06 09:10:14;;;;;;;;;;;;;;;;;;;;;
2023/08/06 09:16:12;;;;;;;;;;;;;;;;;;;;;
2023/08/06 09:19:02;;;;;;;8.90;5.80;;;;;;;31.45;56.36;97550.81;4976037;28;20184;-92
2023/08/06 09:22:13;;;;;;;;;;;;;;;;;;;;;
2023/08/06 09:25:11;;;;;;;;;;;;;;;;;;;;;
2023/08/06 09:28:17;;;;;;;13.00;9.98;;;;;;;31.77;57.12;97549.09;4951387;28;20561;-93
2023/08/06 09:31:36;;;;;;;19.13;13.35;;;;;;;31.25;58.85;97545.16;4961084;28;20182;-95
2023/08/06 09:34:02;;;;;;;23.42;13.75;;;;;;;31.62;57.71;97538.09;4938216;28;20714;-94
2023/08/06 09:44:33;;;;;;;;;;;;;;;;;;;;;
2023/08/06 09:47:55;;;;;;;;;;;;;;;;;;;;;
2023/08/06 09:54:32;;;;;;;;;;;;;;;;;;;;;
2023/08/06 09:58:28;;;;;;;;;;;;;;;;;;;;;
2023/08/06 10:12:20;;;;;;;17.33;12.80;;;;;;;33.30;51.43;97515.69;4809331;29;20563;-93
2023/08/06 10:15:54;;;;;;;19.35;11.00;;;;;;;33.26;51.14;97514.56;4790587;29;20195;-93
2023/08/06 10:21:24;;;;;;;15.13;8.57;;;;;;;33.20;47.73;97522.97;4873300;29;20292;-93
2023/08/06 10:23:55;;;;;;;14.75;9.30;;;;;;;33.02;47.96;97528.81;4885274;29;20195;-90
2023/08/06 10:26:38;;;;;;;15.13;8.30;;;;;;;32.83;48.54;97525.72;4941903;29;20225;-89
2023/08/06 10:29:40;;;;;;;11.73;7.07;;;;;;;32.71;47.03;97530.50;4961418;28;20188;-93
2023/08/06 10:32:08;;;;;;;8.90;6.32;;;;;;;33.19;46.20;97518.59;4978400;28;20208;-93
2023/08/06 10:34:57;;;;;;;8.45;6.40;;;;;;;33.68;41.91;97513.66;4957883;29;20220;-93
2023/08/06 10:37:37;;;;;;;9.27;5.07;;;;;;;33.67;41.37;97518.31;4960046;28;20580;-93
2023/08/06 10:40:07;;;;;;;7.45;3.83;;;;;;;33.76;38.88;97510.44;4925959;28;20193;-91
2023/08/06 10:42:36;;;;;;;5.22;2.70;;;;;;;33.96;36.01;97505.84;4974094;28;20208;-93
2023/08/06 10:48:40;;;;;;;6.32;3.88;;;;;;;34.17;38.13;97511.38;4940210;28;20199;-94
2023/08/06 10:51:12;;;;;;;11.30;7.25;;;;;;;34.29;40.82;97522.78;4976181;28;20185;-92
2023/08/06 10:53:45;;;;;;;12.75;9.18;;;;;;;34.00;43.05;97517.00;4943273;28;20631;-91
2023/08/06 10:56:27;;;;;;;13.30;7.63;;;;;;;33.89;42.71;97509.91;4977094;28;20637;-93
2023/08/06 10:59:20;;;;;;;12.23;8.57;;;;;;;34.18;44.26;97504.81;4976853;28;20239;-93
2023/08/06 11:01:48;;;;;;;10.00;7.57;;;;;;;34.15;42.01;97527.94;4959151;28;20271;-91
2023/08/06 11:04:17;;;;;;;11.85;7.55;;;;;;;34.07;42.18;97536.63;4960245;28;20184;-94
2023/08/06 11:06:52;;;;;;;12.07;6.22;;;;;;;34.24;41.81;97537.22;4957743;28;20212;-93
2023/08/06 11:09:22;;;;;;;9.88;6.10;;;;;;;34.25;41.46;97533.38;4956824;29;20260;-91
2023/08/06 11:11:49;;;;;;;7.47;5.22;;;;;;;34.57;39.41;97528.53;4958101;29;20228;-92
2023/08/06 11:14:19;;;;;;;6.07;4.45;;;;;;;34.89;40.61;97535.56;4966738;28;20229;-93
2023/08/06 11:16:44;;;;;;;8.35;5.00;;;;;;;34.56;40.46;97526.09;4956434;29;20177;-92
2023/08/06 11:19:11;;;;;;;6.97;4.75;;;;;;;34.90;41.68;97527.16;4943941;29;20189;-89
2023/08/06 11:21:43;;;;;;;6.68;4.50;;;;;;;34.75;40.05;97531.81;4956529;29;20673;-91
2023/08/06 11:24:10;;;;;;;5.80;3.15;;;;;;;34.78;38.60;97544.84;4956462;29;20161;-90
2023/08/06 11:26:38;;;;;;;4.05;2.55;;;;;;;34.30;37.79;97555.19;4960457;28;20212;-93
2023/08/06 11:29:04;;;;;;;4.75;2.35;;;;;;;34.40;36.14;97560.63;4959207;28;20180;-91
2023/08/06 11:31:31;;;;;;;4.85;2.60;;;;;;;34.11;36.07;97555.94;4959887;28;20619;-92
2023/08/06 11:33:58;;;;;;;4.80;2.95;;;;;;;33.98;36.33;97562.69;4959336;28;20335;-91
2023/08/06 11:36:41;;;;;;;4.18;2.30;;;;;;;34.19;36.50;97564.41;4975447;28;20550;-91
2023/08/06 11:39:09;;;;;;;5.45;2.90;;;;;;;34.04;37.69;97558.91;4976452;28;20188;-92
2023/08/06 11:41:37;;;;;;;6.28;2.90;;;;;;;33.84;37.99;97561.56;4959308;28;20188;-91
2023/08/06 11:44:04;;;;;;;4.45;3.00;;;;;;;34.09;37.07;97558.94;4976478;28;20187;-91
2023/08/06 11:46:55;;;;;;;4.22;2.50;;;;;;;33.90;38.09;97564.03;4976507;28;20211;-91
2023/08/06 11:49:47;;;;;;;6.13;2.97;;;;;;;34.04;38.68;97564.34;4944155;28;20189;-93
2023/08/06 11:52:19;;;;;;;3.83;2.55;;;;;;;34.29;38.25;97553.53;4946808;28;20224;-92
2023/08/06 11:55:14;;;;;;;5.35;2.78;;;;;;;34.38;38.05;97546.44;4956808;29;20531;-92
2023/08/06 11:57:44;;;;;;;4.35;2.83;;;;;;;34.02;38.68;97552.91;4939849;29;20576;-91
2023/08/06 12:00:14;;;;;;;6.28;3.47;;;;;;;34.02;39.74;97550.19;4939975;29;20166;-92
2023/08/06 12:05:35;;;;;;;4.63;2.90;;;;;;;33.93;39.12;97539.03;4975343;28;20219;-91
2023/08/06 12:08:05;;;;;;;4.57;2.75;;;;;;;34.21;39.17;97539.66;4976042;28;20182;-93
2023/08/06 12:10:32;;;;;;;5.68;2.78;;;;;;;34.04;39.73;97545.31;4945700;29;20216;-93
2023/08/06 12:13:04;;;;;;;5.22;3.40;;;;;;;34.27;39.90;97544.00;4955513;29;20188;-92
2023/08/06 12:15:31;;;;;;;4.85;2.92;;;;;;;34.23;38.61;97540.19;4964821;28;20188;-93
2023/08/06 12:18:00;;;;;;;4.38;2.88;;;;;;;34.33;38.93;97529.34;4958925;28;20203;-93
2023/08/06 12:20:28;;;;;;;5.45;3.75;;;;;;;34.30;38.51;97530.69;4959058;28;20220;-93
2023/08/06 12:22:55;;;;;;;6.00;2.95;;;;;;;34.44;39.03;97542.66;4958687;28;20180;-93
2023/08/06 12:25:23;;;;;;;6.05;3.55;;;;;;;34.42;37.75;97542.13;4975540;28;20341;-93
2023/08/06 12:27:49;;;;;;;5.00;3.03;;;;;;;34.49;37.65;97558.16;4958654;28;20173;-92
2023/08/06 12:30:16;;;;;;;4.30;2.88;;;;;;;34.45;38.62;97554.38;4958301;28;20186;-93
2023/08/06 12:32:42;;;;;;;4.82;2.97;;;;;;;34.37;38.27;97555.72;4975467;28;20185;-93
2023/08/06 12:35:09;;;;;;;4.22;2.80;;;;;;;34.37;39.07;97555.72;4958542;28;20173;-92
2023/08/06 12:37:38;;;;;;;6.50;2.60;;;;;;;34.40;39.07;97549.75;4975378;28;20164;-94
2023/08/06 12:40:05;;;;;;;7.10;3.03;;;;;;;34.33;38.64;97546.44;4958764;28;20177;-93
2023/08/06 12:42:32;;;;;;;4.65;2.85;;;;;;;34.37;38.33;97550.28;4945908;29;20204;-92
2023/08/06 12:45:02;;;;;;;4.93;2.97;;;;;;;34.44;38.49;97539.13;4974027;28;20634;-92
2023/08/06 12:47:29;;;;;;;4.38;2.80;;;;;;;34.40;39.44;97547.03;4957341;28;20274;-92
2023/08/06 12:49:56;;;;;;;4.38;3.30;;;;;;;34.27;39.42;97533.94;4951423;28;20203;-93
2023/08/06 12:52:22;;;;;;;5.72;3.70;;;;;;;34.16;39.16;97547.78;4955581;28;20283;-93
2023/08/06 12:54:49;;;;;;;5.93;3.17;;;;;;;34.22;38.70;97538.56;4948416;28;20274;-92
2023/08/06 12:57:17;;;;;;;5.35;3.20;;;;;;;34.08;39.20;97540.16;4958301;28;20215;-91
2023/08/06 12:59:44;;;;;;;5.05;3.17;;;;;;;33.84;39.68;97539.81;4959894;28;20181;-92
2023/08/06 13:02:13;;;;;;;6.03;3.70;;;;;;;33.29;40.97;97559.41;4958005;28;20278;-92
2023/08/06 13:04:42;;;;;;;6.85;3.85;;;;;;;33.33;42.03;97576.81;4974914;28;20267;-93